Flight Track Log - Related Links

Times and Time Zones

All times are in EDT time to prevent confusion due to time zone crossing. See the SKW5550 flight status page for this flight to view local times or setup timezone preferences in your user account.

Time Position Orientation Groundspeed Altitude Reporting Facility
EDT Latitude Longitude Course Direction KTS MPH feet Rate Location/Type
Mon 05:04:18 PM 39.8500 -104.7667 303° West 200 230 7,200  Level Denver TRACON
Mon 05:05:18 PM 39.8833 -104.8333 303° West 244 281 9,100 2,035 Climbing Denver TRACON
Mon 05:06:13 PM 39.9081 -104.9175 291° West 266 306 11,100 2,256 Climbing Denver Center
Mon 05:07:15 PM 39.9164 -105.0172 276° West 278 320 13,500 2,129 Climbing Denver Center
Mon 05:08:17 PM 39.9264 -105.1289 277° West 289 333 15,500 1,790 Climbing Denver Center
Mon 05:09:19 PM 39.9361 -105.2394 277° West 304 350 17,200 1,500 Climbing Denver Center
Mon 05:10:21 PM 39.9453 -105.3519 276° West 313 360 18,600 1,355 Climbing Denver Center
Mon 05:11:23 PM 39.9561 -105.4781 276° West 326 375 20,000 1,258 Climbing Denver Center
Mon 05:12:25 PM 39.9675 -105.5953 277° West 327 376 21,200 1,210 Climbing Denver Center
Mon 05:13:27 PM 39.9736 -105.7289 273° West 344 396 22,500 1,008 Climbing Denver Center
Mon 05:14:30 PM 39.9711 -105.8503 268° West 352 405 23,300 816 Climbing Denver Center
Mon 05:15:32 PM 39.9786 -105.9811 274° West 362 417 24,200 968 Climbing Denver Center
Mon 05:16:34 PM 39.9869 -106.1422 274° West 372 428 25,300 968 Climbing Denver Center
Mon 05:17:36 PM 39.9939 -106.2781 274° West 375 432 26,200 823 Climbing Denver Center
Mon 05:18:38 PM 40.0014 -106.4122 274° West 375 432 27,000 774 Climbing Denver Center
Mon 05:19:40 PM 40.0203 -106.5578 280° West 375 432 27,800 677 Climbing Denver Center
Mon 05:20:42 PM 40.0408 -106.6847 282° West 374 430 28,400 677 Climbing Denver Center
Mon 05:21:44 PM 40.0639 -106.8339 281° West 377 434 29,200 726 Climbing Denver Center
Mon 05:22:46 PM 40.0819 -106.9617 281° West 375 432 29,900 726 Climbing Denver Center
Mon 05:23:48 PM 40.1064 -107.1108 282° West 377 434 30,700 677 Climbing Denver Center
Mon 05:24:50 PM 40.1247 -107.2375 281° West 373 429 31,300 484 Climbing Denver Center
Mon 05:25:52 PM 40.1433 -107.3633 281° West 371 427 31,700 339 Climbing Denver Center
Mon 05:26:54 PM 40.1650 -107.5119 281° West 373 429 32,000 145 Climbing Denver Center
Mon 05:27:56 PM 40.1847 -107.6431 281° West 382 440 32,000  Level Denver Center
Mon 05:28:58 PM 40.2058 -107.7997 280° West 392 451 32,000  Level Denver Center
Mon 05:30:01 PM 40.2264 -107.9364 281° West 399 459 32,000  Level Denver Center
Mon 05:31:03 PM 40.2500 -108.1008 281° West 411 473 32,000  Level Denver Center
Mon 05:32:05 PM 40.2700 -108.2425 281° West 415 478 32,000  Level Denver Center
Mon 05:33:07 PM 40.2931 -108.4067 280° West 414 476 32,000  Level Denver Center
Mon 05:33:39 PM 40.3031 -108.4858 279° West 417 480 32,000  Level Salt Lake Center
Mon 05:34:41 PM 40.3231 -108.6286 280° West 416 479 32,000  Level Salt Lake Center
Mon 05:35:11 PM 40.3342 -108.7150 280° West 415 478 32,000  Level Denver Center
Mon 05:36:13 PM 40.3536 -108.8583 280° West 417 480 32,000  Level Denver Center
Mon 05:36:44 PM 40.3669 -108.9533 280° West 417 480 32,000  Level Salt Lake Center
Mon 05:37:46 PM 40.3850 -109.0958 279° West 417 480 32,000  Level Salt Lake Center
Mon 05:38:48 PM 40.4064 -109.2614 280° West 414 476 32,000  Level Salt Lake Center
Mon 05:39:50 PM 40.4261 -109.4031 280° West 413 475 32,000  Level Salt Lake Center
Mon 05:40:51 PM 40.4464 -109.5703 279° West 416 479 32,000  Level Salt Lake Center
Mon 05:41:53 PM 40.4647 -109.7153 279° West 420 483 32,000  Level Salt Lake Center
Mon 05:42:55 PM 40.4833 -109.8583 280° West 417 480 32,000  Level Salt Lake Center
Mon 05:43:57 PM 40.5031 -110.0283 279° West 422 486 32,000  Level Salt Lake Center
Mon 05:44:58 PM 40.5172 -110.1756 277° West 424 488 32,000  Level Salt Lake Center
Mon 05:46:00 PM 40.5342 -110.3467 277° West 424 488 32,000  Level Salt Lake Center
Mon 05:47:02 PM 40.5478 -110.4944 277° West 426 490 32,000  Level Salt Lake Center
Mon 05:48:03 PM 40.5608 -110.6400 277° West 426 490 32,000  Level Salt Lake Center
Mon 05:49:05 PM 40.5789 -110.8256 277° West 428 493 32,000  Level Salt Lake Center
Mon 05:50:07 PM 40.5931 -110.9797 277° West 426 490 32,000  Level Salt Lake Center
Mon 05:51:09 PM 40.6069 -111.1358 277° West 428 493 32,000  Level Salt Lake Center
Mon 05:52:10 PM 40.6200 -111.2911 276° West 428 493 32,000  Level Salt Lake Center
Mon 05:53:12 PM 40.6333 -111.4469 276° West 428 493 32,000  Level Salt Lake Center
Mon 05:54:14 PM 40.6467 -111.6031 276° West 427 491 32,000  Level Salt Lake Center
Mon 05:55:15 PM 40.6603 -111.7608 277° West 430 495 32,000  Level Salt Lake Center
Mon 05:56:17 PM 40.6733 -111.9186 276° West 429 494 32,000  Level Salt Lake Center
Mon 05:57:19 PM 40.6853 -112.0769 276° West 430 495 32,000  Level Salt Lake Center
Mon 05:58:20 PM 40.7008 -112.2664 276° West 431 496 32,000  Level Salt Lake Center
Mon 05:59:22 PM 40.7122 -112.4239 276° West 432 497 32,000  Level Salt Lake Center
Mon 06:00:23 PM 40.7233 -112.5806 275° West 427 491 32,000  Level Salt Lake Center
Mon 06:01:25 PM 40.7231 -112.7386 270° West 429 494 32,000  Level Salt Lake Center
Mon 06:02:27 PM 40.7253 -112.8967 271° West 430 495 32,000  Level Salt Lake Center
Mon 06:03:28 PM 40.7253 -113.0531 270° West 428 493 32,000  Level Salt Lake Center
Mon 06:04:30 PM 40.7264 -113.2103 271° West 429 494 32,000  Level Salt Lake Center
Mon 06:05:32 PM 40.7283 -113.3653 271° West 424 488 32,000  Level Salt Lake Center
Mon 06:06:33 PM 40.7267 -113.5539 269° West 427 491 32,000  Level Salt Lake Center
Mon 06:07:35 PM 40.7261 -113.7108 270° West 430 495 32,000  Level Salt Lake Center
Mon 06:08:37 PM 40.7239 -113.8681 269° West 430 495 32,000  Level Salt Lake Center
Mon 06:09:38 PM 40.7189 -114.0250 268° West 430 495 32,000  Level Salt Lake Center
Mon 06:10:40 PM 40.7122 -114.1831 267° West 433 498 32,000  Level Salt Lake Center
Mon 06:11:42 PM 40.7075 -114.3403 268° West 431 496 32,000  Level Salt Lake Center
Mon 06:12:43 PM 40.7025 -114.4989 268° West 433 498 32,000  Level Salt Lake Center
Mon 06:13:45 PM 40.6953 -114.6875 267° West 432 497 32,000  Level Salt Lake Center
Mon 06:14:47 PM 40.6881 -114.8258 266° West 432 497 32,000  Level Salt Lake Center
Mon 06:15:48 PM 40.6794 -115.0031 266° West 433 498 32,000  Level Salt Lake Center
Mon 06:16:50 PM 40.6689 -115.1544 265° West 434 499 32,000  Level Salt Lake Center
Mon 06:17:52 PM 40.6592 -115.3303 266° West 432 497 32,000  Level Salt Lake Center
Mon 06:18:54 PM 40.6514 -115.4811 266° West 432 497 32,000  Level Salt Lake Center
Mon 06:19:55 PM 40.6431 -115.6589 267° West 435 501 32,000  Level Salt Lake Center
Mon 06:20:57 PM 40.6375 -115.8092 267° West 432 497 32,000  Level Salt Lake Center
Mon 06:21:59 PM 40.6289 -115.9619 266° West 435 501 32,000  Level Salt Lake Center
Mon 06:23:00 PM 40.6186 -116.1383 266° West 435 501 32,000  Level Salt Lake Center
Mon 06:24:02 PM 40.6092 -116.2919 265° West 439 505 32,000  Level Salt Lake Center
Mon 06:25:04 PM 40.5981 -116.4686 265° West 437 503 32,000  Level Salt Lake Center
Mon 06:26:05 PM 40.5883 -116.6211 265° West 439 505 32,000  Level Salt Lake Center
Mon 06:27:07 PM 40.5772 -116.7953 265° West 434 499 32,000  Level Salt Lake Center
Mon 06:28:09 PM 40.5611 -116.9439 262° West 440 506 32,000  Level Salt Lake Center
Mon 06:29:10 PM 40.5033 -117.1033 245° Southwest 440 506 32,000  Level Salt Lake Center
Mon 06:30:12 PM 40.4539 -117.2408 245° Southwest 439 505 32,000  Level Salt Lake Center
Mon 06:31:13 PM 40.3942 -117.3994 244° Southwest 437 503 32,000  Level Salt Lake Center
Mon 06:32:15 PM 40.3439 -117.5367 244° Southwest 437 503 32,000  Level Salt Lake Center
Mon 06:33:17 PM 40.2847 -117.6958 244° Southwest 434 499 32,000  Level Salt Lake Center
Mon 06:34:18 PM 40.2331 -117.8319 244° Southwest 437 503 32,000  Level Salt Lake Center
Mon 06:35:05 PM 40.1889 -117.9572 245° Southwest 442 509 32,000  Level Oakland Center
Mon 06:36:07 PM 40.1356 -118.0992 244° Southwest 439 505 32,000  Level Oakland Center
Mon 06:37:08 PM 40.0800 -118.2403 243° Southwest 438 504 32,000  Level Oakland Center
Mon 06:38:10 PM 40.0264 -118.3836 244° Southwest 439 505 32,000  Level Oakland Center
Mon 06:39:11 PM 39.9731 -118.5250 244° Southwest 437 503 32,000  Level Oakland Center
Mon 06:40:13 PM 39.9181 -118.6669 243° Southwest 441 507 32,000  Level Oakland Center
Mon 06:41:14 PM 39.8642 -118.8069 243° Southwest 439 505 32,000  Level Oakland Center
Mon 06:42:16 PM 39.7981 -118.9767 243° Southwest 440 506 32,000  Level Oakland Center
Mon 06:43:17 PM 39.7428 -119.1183 243° Southwest 442 509 32,000 -390 Level Oakland Center
Mon 06:44:19 PM 39.6875 -119.2606 243° Southwest 444 511 31,200 -878 Descending Oakland Center
Mon 06:45:20 PM 39.6278 -119.4097 243° Southwest 462 532 30,200 -1,033 Descending Oakland Center
Mon 06:46:21 PM 39.5703 -119.5564 243° Southwest 457 526 29,100 -1,024 Descending Oakland Center
Mon 06:47:23 PM 39.5089 -119.6947 240° Southwest 447 514 28,100 -1,024 Descending Oakland Center
Mon 06:48:24 PM 39.4361 -119.8231 234° Southwest 444 511 27,000 -1,220 Descending Oakland Center
Mon 06:49:26 PM 39.3483 -119.9769 234° Southwest 443 510 25,600 -1,220 Descending Oakland Center
Mon 06:50:27 PM 39.2739 -120.1044 233° Southwest 446 513 24,500 -1,366 Descending Oakland Center
Mon 06:51:29 PM 39.2108 -120.2167 234° Southwest 441 507 22,800 -2,000 Descending Oakland Center
Mon 06:52:30 PM 39.1514 -120.3861 246° West 437 503 20,400 -2,213 Descending Oakland Center
Mon 06:53:31 PM 39.1150 -120.5289 252° West 424 488 18,300 -1,951 Descending Oakland Center
Mon 06:54:33 PM 39.0792 -120.6678 252° West 411 473 16,400 -1,951 Descending Oakland Center
Mon 06:55:34 PM 39.0453 -120.8000 252° West 395 455 14,300 -2,000 Descending Oakland Center
Mon 06:56:36 PM 39.0128 -120.9264 252° West 378 435 12,300 -1,756 Descending Oakland Center
Mon 06:57:37 PM 38.9811 -121.0472 251° West 362 417 10,700 -1,463 Descending Oakland Center
Mon 06:58:39 PM 38.9544 -121.1481 251° West 306 352 9,300 -1,317 Descending Oakland Center
Mon 06:59:40 PM 38.9294 -121.2450 252° West 292 336 8,000 -738 Descending Oakland Center
Mon 07:00:41 PM 38.9008 -121.3528 251° West 274 315 7,800 -537 Descending Oakland Center
Mon 07:01:43 PM 38.8856 -121.4472 258° West 276 318 6,900 -976 Descending Oakland Center
Mon 07:02:44 PM 38.8847 -121.5467 269° West 281 323 5,800 -857 Descending Oakland Center
Mon 07:03:56 PM 38.8667 -121.6667 259° West 261 300 5,000 -591 Descending Northern Cal TRACON
Mon 07:04:56 PM 38.8000 -121.7000 201° Southwest 279 321 4,500 -964 Descending Northern Cal TRACON
Mon 07:05:48 PM 38.7475 -121.7011 181° South 267 307 3,200 -796 Descending Oakland Center
Mon 07:06:49 PM 38.6783 -121.6969 177° South 256 295 3,000 -293 Descending Oakland Center
Mon 07:07:51 PM 38.6172 -121.6911 176° South 232 267 2,600 -537 Descending Oakland Center
Mon 07:08:52 PM 38.5983 -121.6214 109° East 208 239 1,900 -689 Descending Oakland Center
Mon 07:09:53 PM 38.6256 -121.5806 50° Northeast 180 207 1,200 -774 Descending Oakland Center
Mon 07:10:56 PM 38.6667 -121.5833 357° North 147 169 300 -857 Descending Northern Cal TRACON

Login

Don't have an account? Register now (free) for customized features, flight alerts, and more!